Terminal Aerodrome Forecast
Issued by NWS

Home | Current Version | Previous Version | Graphics & Text | Print | Product List | Glossary On
Versions: 1 2 3 4 5 6 7 8 9 10 11 12 13 14 15 16 17 18 19 20 21
922
FTUS43 KICT 192332
TAFSLN
TAF
KSLN 192332Z 2000/2024 13007KT 4SM BR OVC007
     FM200600 VRB03KT 2SM BR OVC003
     FM200800 VRB03KT 1/4SM FG OVC003
     FM201500 09004KT 1/2SM FG OVC003
     FM201700 10005KT 1SM BR VCSH OVC003
     FM201900 13006KT 5SM BR OVC008
     FM202100 18007KT P6SM OVC010=

USA.gov is the U.S. government's official web portal to all federal, state and local government web resources and services.